Camaqua, Brazil
Current Conditions -  °F | °C
As of 4:00 PM on Thursday 30 Oct 2014 (Local Time) from SBPK Reporting Station
Overcast Overcast  
Wind Chill: 72°   Ceiling: 10000
Heat Index: 72°   Visibility: 6mi
Dew Point: 66°   Wind: 12mph
Humidity: 83%   Direction: 210°SSW
Pressure: 29.8"   Gusts: NA
Location:  30.85°S, 51.81°W
Report Text: SBPK 301800Z 21010KT 9999 SCT030 OVC100 22/19 Q1009
Loading
Personal Weather Stations






























Interactive Weather Map New forecast layout! Learn more

10-Day Weather Forecast

Advertisements
Track Severe Weather on mobile